Terminal Aerodrome Forecast
Issued by NWS

Home | Current Version | Previous Version | Text Only | Print | Product List | Glossary On
Versions: 1 2 3 4 5 6 7 8 9 10 11
000
FTUS42 TJSJ 261700 RRA
TAFKPK
TAF
TKPK 261740Z 2618/2718 05014KT P6SM FEW023
     FM262300 04010KT P6SM FEW022
     FM271300 05012KT P6SM FEW022
      AMD NOT SKED 2702/2711=

USA.gov is the U.S. government's official web portal to all federal, state and local government web resources and services.